Time;durP1;ratioP1;P1;durP2;ratioP2;P2;SDS_P1;SDS_P2;PMS_P1;PMS_P2;Temp;Humidity;BMP_temperature;BMP_pressure;BME280_temperature;BME280_humidity;BME280_pressure;Samples;Min_cycle;Max_cycle;Signal;HPM_P1;HPM_P2
2023/03/03 00:00:24;;;;;;;32.80;17.00;;;;;;;;;;5082411;28;20219;-83
2023/03/03 00:02:52;;;;;;;35.10;17.10;;;;;;;;;;5085974;28;20220;-82
2023/03/03 00:05:19;;;;;;;33.30;17.90;;;;;;;;;;5096108;28;20227;-82
2023/03/03 00:07:46;;;;;;;38.37;19.20;;;;;;;;;;5089107;28;20201;-82
2023/03/03 00:10:14;;;;;;;33.60;18.10;;;;;;;;;;5088823;28;20254;-82
2023/03/03 00:12:46;;;;;;;33.10;17.53;;;;;;;;;;5088933;28;20266;-82
2023/03/03 00:15:17;;;;;;;34.40;18.40;;;;;;;;;;5098109;28;20235;-81
2023/03/03 00:17:44;;;;;;;35.87;18.67;;;;;;;;;;5088267;28;20249;-81
2023/03/03 00:20:29;;;;;;;35.70;18.73;;;;;;;;;;5088371;28;20201;-82
2023/03/03 00:22:56;;;;;;;35.57;19.10;;;;;;;;;;5082558;28;20212;-82
2023/03/03 00:25:28;;;;;;;38.07;19.43;;;;;;;;;;5089044;28;20205;-82
2023/03/03 00:27:55;;;;;;;35.53;18.87;;;;;;;;;;5089332;28;20206;-82
2023/03/03 00:30:24;;;;;;;35.90;18.50;;;;;;;;;;5091414;28;20209;-81
2023/03/03 00:32:52;;;;;;;37.30;18.57;;;;;;;;;;5088807;28;20226;-84
2023/03/03 00:35:24;;;;;;;37.00;19.57;;;;;;;;;;5087578;28;20207;-82
2023/03/03 00:37:54;;;;;;;34.67;17.60;;;;;;;;;;5079239;28;20225;-81
2023/03/03 00:40:23;;;;;;;37.03;19.43;;;;;;;;;;5092405;28;20214;-81
2023/03/03 00:42:52;;;;;;;43.47;21.77;;;;;;;;;;5084093;28;20219;-82
2023/03/03 00:45:29;;;;;;;40.87;20.17;;;;;;;;;;5087351;28;20325;-81
2023/03/03 00:47:57;;;;;;;39.50;20.23;;;;;;;;;;5092284;28;20211;-82
2023/03/03 00:50:31;;;;;;;36.70;20.43;;;;;;;;;;5087044;28;20207;-82
2023/03/03 00:53:12;;;;;;;32.87;18.10;;;;;;;;;;5082182;28;20208;-82
2023/03/03 00:55:39;;;;;;;34.60;17.53;;;;;;;;;;5082813;28;20249;-82
2023/03/03 00:58:07;;;;;;;40.50;20.40;;;;;;;;;;5076307;28;20200;-81
2023/03/03 01:00:39;;;;;;;40.40;20.00;;;;;;;;;;5079654;28;20292;-81
2023/03/03 01:03:14;;;;;;;36.07;19.43;;;;;;;;;;5088943;28;20257;-81
2023/03/03 01:05:41;;;;;;;37.13;18.70;;;;;;;;;;5089920;28;20201;-81
2023/03/03 01:08:08;;;;;;;36.77;19.03;;;;;;;;;;5089193;28;20195;-82
2023/03/03 01:10:37;;;;;;;34.37;17.60;;;;;;;;;;5091569;28;20217;-82
2023/03/03 01:13:04;;;;;;;37.17;18.13;;;;;;;;;;5091602;28;20205;-82
2023/03/03 01:15:33;;;;;;;32.83;17.73;;;;;;;;;;5079073;28;20212;-81
2023/03/03 01:17:59;;;;;;;28.60;16.20;;;;;;;;;;5087589;28;20215;-82
2023/03/03 01:20:27;;;;;;;34.33;17.60;;;;;;;;;;5085558;28;20257;-81
2023/03/03 01:22:54;;;;;;;33.47;16.97;;;;;;;;;;5089080;28;20209;-81
2023/03/03 01:25:21;;;;;;;32.20;16.43;;;;;;;;;;5086770;28;20200;-81
2023/03/03 01:27:47;;;;;;;34.00;18.03;;;;;;;;;;5087629;28;20204;-82
2023/03/03 01:30:14;;;;;;;33.23;17.40;;;;;;;;;;5088436;28;20199;-81
2023/03/03 01:32:43;;;;;;;34.00;17.97;;;;;;;;;;5084436;28;20219;-82
2023/03/03 01:35:09;;;;;;;30.23;15.97;;;;;;;;;;5090440;28;20269;-82
2023/03/03 01:37:36;;;;;;;32.67;16.27;;;;;;;;;;5084459;28;20229;-82
2023/03/03 01:40:04;;;;;;;34.07;16.73;;;;;;;;;;5088484;28;20202;-82
2023/03/03 01:42:31;;;;;;;38.60;18.13;;;;;;;;;;5097326;28;20251;-81
2023/03/03 01:45:16;;;;;;;36.00;18.43;;;;;;;;;;5084311;28;20233;-81
2023/03/03 01:47:45;;;;;;;35.67;17.80;;;;;;;;;;5091221;28;20220;-81
2023/03/03 01:50:17;;;;;;;35.93;18.33;;;;;;;;;;5081502;28;20207;-82
2023/03/03 01:52:44;;;;;;;39.90;19.60;;;;;;;;;;5087546;28;20209;-81
2023/03/03 01:55:12;;;;;;;40.57;19.03;;;;;;;;;;5087732;28;20204;-82
2023/03/03 01:57:41;;;;;;;36.23;18.87;;;;;;;;;;5080568;28;20283;-81
2023/03/03 02:00:08;;;;;;;37.07;18.40;;;;;;;;;;5089941;28;20278;-83
2023/03/03 02:02:41;;;;;;;39.03;18.93;;;;;;;;;;5087280;28;20205;-82
2023/03/03 02:05:10;;;;;;;39.77;20.37;;;;;;;;;;5098149;28;20215;-81
2023/03/03 02:07:37;;;;;;;38.77;19.63;;;;;;;;;;5092451;28;20196;-82
2023/03/03 02:10:05;;;;;;;36.10;17.77;;;;;;;;;;5102782;27;20211;-82
2023/03/03 02:12:34;;;;;;;40.23;19.67;;;;;;;;;;5086982;28;20205;-82
2023/03/03 02:15:01;;;;;;;33.27;17.70;;;;;;;;;;5083233;28;20276;-81
2023/03/03 02:17:28;;;;;;;35.33;17.90;;;;;;;;;;5081064;28;20245;-82
2023/03/03 02:20:00;;;;;;;35.87;18.77;;;;;;;;;;5076892;28;20209;-82
2023/03/03 02:22:32;;;;;;;37.27;19.20;;;;;;;;;;5091202;28;20207;-82
2023/03/03 02:25:00;;;;;;;35.27;18.00;;;;;;;;;;5087128;28;20204;-81
2023/03/03 02:27:31;;;;;;;35.40;18.70;;;;;;;;;;5074507;28;20193;-82
2023/03/03 02:29:58;;;;;;;34.00;18.03;;;;;;;;;;5091059;28;20209;-82
2023/03/03 02:32:25;;;;;;;34.00;18.33;;;;;;;;;;5091955;28;20208;-82
2023/03/03 02:34:52;;;;;;;30.43;17.47;;;;;;;;;;5088993;28;20200;-82
2023/03/03 02:37:20;;;;;;;31.97;17.53;;;;;;;;;;5086755;28;20229;-82
2023/03/03 02:39:46;;;;;;;32.60;18.30;;;;;;;;;;5084332;28;20211;-82
2023/03/03 02:42:19;;;;;;;31.93;17.73;;;;;;;;;;5098103;28;20197;-82
2023/03/03 02:44:51;;;;;;;36.37;17.77;;;;;;;;;;5087739;28;20241;-81
2023/03/03 02:47:18;;;;;;;33.40;17.50;;;;;;;;;;5091074;28;20210;-81
2023/03/03 02:49:45;;;;;;;35.73;18.50;;;;;;;;;;5089951;28;20251;-82
2023/03/03 02:52:13;;;;;;;34.77;17.63;;;;;;;;;;5088983;28;20205;-82
2023/03/03 02:54:43;;;;;;;38.00;19.40;;;;;;;;;;5091592;28;20205;-82
2023/03/03 02:57:10;;;;;;;34.90;18.70;;;;;;;;;;5103786;28;20302;-82
2023/03/03 02:59:36;;;;;;;32.70;17.63;;;;;;;;;;5090626;28;20201;-83
2023/03/03 03:02:14;;;;;;;35.57;18.83;;;;;;;;;;5083515;28;20208;-82
2023/03/03 03:04:42;;;;;;;34.43;18.03;;;;;;;;;;5099151;28;20212;-82
2023/03/03 03:07:10;;;;;;;31.53;17.17;;;;;;;;;;5086484;28;20228;-82
2023/03/03 03:09:38;;;;;;;34.30;18.20;;;;;;;;;;5088809;28;20262;-82
2023/03/03 03:12:05;;;;;;;33.93;18.33;;;;;;;;;;5103277;28;20205;-82
2023/03/03 03:14:34;;;;;;;37.93;19.30;;;;;;;;;;5086219;28;20228;-83
2023/03/03 03:17:01;;;;;;;35.30;17.87;;;;;;;;;;5078853;28;20220;-81
2023/03/03 03:19:29;;;;;;;34.10;19.00;;;;;;;;;;5089754;28;20209;-83
2023/03/03 03:22:00;;;;;;;35.33;18.10;;;;;;;;;;5090519;28;20197;-82
2023/03/03 03:24:27;;;;;;;31.20;17.23;;;;;;;;;;5084733;28;20308;-82
2023/03/03 03:26:59;;;;;;;38.10;18.40;;;;;;;;;;5105139;28;20215;-82
2023/03/03 03:29:27;;;;;;;33.13;17.70;;;;;;;;;;5091010;28;20228;-82
2023/03/03 03:31:54;;;;;;;34.07;17.97;;;;;;;;;;5094270;28;20209;-82
2023/03/03 03:34:21;;;;;;;35.87;17.90;;;;;;;;;;5082649;28;20208;-82
2023/03/03 03:36:51;;;;;;;35.17;18.60;;;;;;;;;;5090425;28;20217;-81
2023/03/03 03:39:19;;;;;;;32.80;18.73;;;;;;;;;;5103713;28;20208;-84
2023/03/03 03:41:48;;;;;;;35.43;18.27;;;;;;;;;;5091291;28;20270;-82
2023/03/03 03:44:16;;;;;;;34.13;18.00;;;;;;;;;;5090772;28;20327;-82
2023/03/03 03:46:42;;;;;;;33.63;16.73;;;;;;;;;;5104633;28;20295;-82
2023/03/03 03:49:10;;;;;;;32.97;17.70;;;;;;;;;;5088643;28;20224;-82
2023/03/03 03:51:40;;;;;;;34.03;17.97;;;;;;;;;;5081171;28;20220;-82
2023/03/03 03:54:10;;;;;;;32.80;18.43;;;;;;;;;;5079415;28;20248;-83
2023/03/03 03:56:38;;;;;;;36.03;18.97;;;;;;;;;;5088143;28;20209;-82
2023/03/03 03:59:05;;;;;;;33.50;17.30;;;;;;;;;;5104739;27;20200;-82
2023/03/03 04:01:32;;;;;;;36.57;19.90;;;;;;;;;;5086760;28;20255;-83
2023/03/03 04:03:59;;;;;;;38.33;19.43;;;;;;;;;;5089751;28;20201;-83
2023/03/03 04:06:26;;;;;;;38.13;19.53;;;;;;;;;;5098863;27;20205;-82
2023/03/03 04:08:54;;;;;;;32.77;18.03;;;;;;;;;;5089859;28;20200;-83
2023/03/03 04:11:24;;;;;;;36.53;19.60;;;;;;;;;;5093437;28;20215;-82
2023/03/03 04:13:51;;;;;;;35.30;19.17;;;;;;;;;;5091576;28;20236;-82
2023/03/03 04:16:18;;;;;;;35.10;20.23;;;;;;;;;;5082926;28;20321;-83
2023/03/03 04:18:45;;;;;;;37.83;19.47;;;;;;;;;;5098291;28;20217;-83
2023/03/03 04:21:13;;;;;;;39.43;19.60;;;;;;;;;;5102541;27;20200;-82
2023/03/03 04:23:40;;;;;;;34.70;18.83;;;;;;;;;;5096692;28;20197;-83
2023/03/03 04:26:09;;;;;;;38.40;20.33;;;;;;;;;;5086854;28;20240;-82
2023/03/03 04:28:38;;;;;;;36.60;19.17;;;;;;;;;;5089332;28;20280;-82
2023/03/03 04:31:05;;;;;;;36.67;19.77;;;;;;;;;;5090777;28;20213;-82
2023/03/03 04:33:33;;;;;;;36.97;19.40;;;;;;;;;;5090484;28;20205;-82
2023/03/03 04:36:01;;;;;;;36.83;20.40;;;;;;;;;;5089226;28;20201;-83
2023/03/03 04:38:27;;;;;;;39.50;20.17;;;;;;;;;;5083450;28;20220;-82
2023/03/03 04:40:56;;;;;;;48.60;21.63;;;;;;;;;;5079183;28;20221;-85
2023/03/03 04:43:24;;;;;;;43.43;21.53;;;;;;;;;;5083160;28;20205;-85
2023/03/03 04:45:55;;;;;;;43.77;21.43;;;;;;;;;;5078150;28;20236;-85
2023/03/03 04:48:23;;;;;;;41.93;20.53;;;;;;;;;;5087565;28;20188;-85
2023/03/03 04:50:50;;;;;;;46.27;21.53;;;;;;;;;;5078228;28;20201;-85
2023/03/03 04:53:17;;;;;;;47.90;24.60;;;;;;;;;;5088479;28;20208;-85
2023/03/03 04:55:44;;;;;;;46.90;22.70;;;;;;;;;;5086001;28;20273;-85
2023/03/03 04:58:11;;;;;;;47.07;23.80;;;;;;;;;;5085277;28;20236;-85
2023/03/03 05:00:39;;;;;;;47.87;25.20;;;;;;;;;;5083123;28;20197;-85
2023/03/03 05:03:09;;;;;;;48.33;24.00;;;;;;;;;;5086979;28;20216;-85
2023/03/03 05:05:35;;;;;;;48.67;24.27;;;;;;;;;;5089352;28;20270;-83
2023/03/03 05:08:02;;;;;;;50.70;24.07;;;;;;;;;;5087980;28;20208;-82
2023/03/03 05:10:29;;;;;;;46.80;24.20;;;;;;;;;;5087972;28;20232;-83
2023/03/03 05:12:55;;;;;;;47.77;23.70;;;;;;;;;;5082249;28;20197;-83
2023/03/03 05:15:23;;;;;;;45.63;23.77;;;;;;;;;;5081520;28;20209;-82
2023/03/03 05:17:52;;;;;;;42.47;21.17;;;;;;;;;;5086289;28;20213;-82
2023/03/03 05:20:20;;;;;;;43.80;21.40;;;;;;;;;;5081361;28;20209;-82
2023/03/03 05:22:47;;;;;;;44.20;20.07;;;;;;;;;;5086598;28;20205;-82
2023/03/03 05:25:14;;;;;;;38.50;20.93;;;;;;;;;;5087321;28;20204;-82
2023/03/03 05:27:41;;;;;;;40.17;20.50;;;;;;;;;;5084392;28;20202;-82
2023/03/03 05:30:09;;;;;;;45.17;22.03;;;;;;;;;;5081329;28;20261;-82
2023/03/03 05:32:35;;;;;;;43.67;22.47;;;;;;;;;;5079706;28;20200;-82
2023/03/03 05:35:02;;;;;;;41.03;21.83;;;;;;;;;;5086102;28;20204;-82
2023/03/03 05:37:30;;;;;;;45.30;22.37;;;;;;;;;;5088415;28;20227;-82
2023/03/03 05:39:57;;;;;;;44.33;21.63;;;;;;;;;;5103894;28;20234;-82
2023/03/03 05:42:24;;;;;;;47.57;22.93;;;;;;;;;;5091371;28;20196;-81
2023/03/03 05:44:51;;;;;;;43.93;21.80;;;;;;;;;;5097584;28;20344;-82
2023/03/03 05:47:17;;;;;;;41.13;20.70;;;;;;;;;;5091983;28;20218;-82
2023/03/03 05:49:44;;;;;;;43.70;22.47;;;;;;;;;;5095311;28;20256;-82
2023/03/03 05:52:11;;;;;;;40.80;21.10;;;;;;;;;;5088053;28;20209;-81
2023/03/03 05:54:39;;;;;;;41.33;22.20;;;;;;;;;;5091420;28;20247;-82
2023/03/03 05:57:06;;;;;;;42.80;20.70;;;;;;;;;;5083943;28;20205;-82
2023/03/03 05:59:33;;;;;;;38.77;20.80;;;;;;;;;;5103578;28;20224;-82
2023/03/03 06:02:00;;;;;;;40.30;19.13;;;;;;;;;;5086975;28;20200;-82
2023/03/03 06:04:27;;;;;;;40.47;20.77;;;;;;;;;;5083138;28;20236;-82
2023/03/03 06:06:53;;;;;;;40.20;20.17;;;;;;;;;;5090959;28;20210;-82
2023/03/03 06:09:20;;;;;;;41.93;21.97;;;;;;;;;;5093508;28;20211;-82
2023/03/03 06:11:48;;;;;;;38.37;20.77;;;;;;;;;;5090526;28;20223;-82
2023/03/03 06:14:15;;;;;;;44.83;21.90;;;;;;;;;;5091618;28;20255;-82
2023/03/03 06:16:42;;;;;;;43.27;21.77;;;;;;;;;;5092537;28;20217;-82
2023/03/03 06:19:09;;;;;;;40.97;21.27;;;;;;;;;;5091952;28;20306;-82
2023/03/03 06:21:35;;;;;;;42.53;20.97;;;;;;;;;;5092668;28;20201;-82
2023/03/03 06:24:03;;;;;;;43.40;21.43;;;;;;;;;;5099636;28;20205;-81
2023/03/03 06:26:33;;;;;;;37.60;19.90;;;;;;;;;;5086447;28;20201;-82
2023/03/03 06:29:01;;;;;;;33.23;18.33;;;;;;;;;;5089430;28;20196;-82
2023/03/03 06:31:28;;;;;;;41.27;19.93;;;;;;;;;;5078914;28;20919;-82
2023/03/03 06:33:55;;;;;;;36.83;18.67;;;;;;;;;;5083583;28;20219;-82
2023/03/03 06:36:22;;;;;;;36.87;19.53;;;;;;;;;;5078434;28;20196;-82
2023/03/03 06:38:49;;;;;;;36.27;19.77;;;;;;;;;;5090172;28;20315;-82
2023/03/03 06:41:15;;;;;;;38.83;19.03;;;;;;;;;;5082458;28;20304;-82
2023/03/03 06:43:42;;;;;;;37.87;18.93;;;;;;;;;;5080806;28;20269;-82
2023/03/03 06:46:10;;;;;;;38.90;19.67;;;;;;;;;;5076835;28;20219;-83
2023/03/03 06:48:37;;;;;;;36.53;18.93;;;;;;;;;;5087956;28;20246;-82
2023/03/03 06:51:13;;;;;;;38.00;19.10;;;;;;;;;;5083901;28;20201;-82
2023/03/03 06:53:39;;;;;;;37.37;20.03;;;;;;;;;;5100454;27;20212;-82
2023/03/03 06:56:08;;;;;;;42.83;22.00;;;;;;;;;;5088934;28;20204;-82
2023/03/03 06:58:35;;;;;;;34.53;18.67;;;;;;;;;;5084545;28;20224;-82
2023/03/03 07:01:02;;;;;;;40.10;18.77;;;;;;;;;;5080962;28;20269;-81
2023/03/03 07:03:33;;;;;;;36.50;18.40;;;;;;;;;;5078356;28;20208;-82
2023/03/03 07:06:00;;;;;;;34.73;19.27;;;;;;;;;;5078566;28;20200;-82
2023/03/03 07:08:30;;;;;;;35.37;18.57;;;;;;;;;;5084195;28;20216;-82
2023/03/03 07:11:01;;;;;;;37.90;19.80;;;;;;;;;;5090167;28;20253;-81
2023/03/03 07:13:29;;;;;;;40.33;19.93;;;;;;;;;;5088100;28;20227;-81
2023/03/03 07:15:56;;;;;;;41.13;20.33;;;;;;;;;;5088776;28;20209;-81
2023/03/03 07:18:31;;;;;;;39.93;20.17;;;;;;;;;;5087946;28;20304;-82
2023/03/03 07:21:00;;;;;;;39.77;19.73;;;;;;;;;;5083293;28;20215;-82
2023/03/03 07:23:28;;;;;;;37.83;18.37;;;;;;;;;;5094173;28;20218;-82
2023/03/03 07:25:55;;;;;;;35.03;18.67;;;;;;;;;;5089465;28;20206;-82
2023/03/03 07:28:23;;;;;;;35.13;19.23;;;;;;;;;;5084859;28;20192;-82
2023/03/03 07:30:50;;;;;;;38.47;18.97;;;;;;;;;;5082312;28;20230;-82
2023/03/03 07:33:20;;;;;;;37.63;19.80;;;;;;;;;;5078360;28;20229;-81
2023/03/03 07:35:47;;;;;;;32.10;17.73;;;;;;;;;;5077282;28;20236;-82
2023/03/03 07:38:22;;;;;;;34.53;18.10;;;;;;;;;;5093013;28;20228;-82
2023/03/03 07:40:50;;;;;;;36.37;18.33;;;;;;;;;;5078321;28;20205;-82
2023/03/03 07:43:22;;;;;;;38.10;18.87;;;;;;;;;;5090046;28;20240;-81
2023/03/03 07:45:50;;;;;;;43.90;18.90;;;;;;;;;;5106716;28;20244;-82
2023/03/03 07:48:19;;;;;;;37.07;19.03;;;;;;;;;;5089609;28;20296;-82
2023/03/03 07:50:47;;;;;;;32.93;17.57;;;;;;;;;;5092403;28;20273;-82
2023/03/03 07:53:19;;;;;;;36.93;18.00;;;;;;;;;;5089701;28;20559;-82
2023/03/03 07:55:48;;;;;;;33.30;18.03;;;;;;;;;;5092281;28;20263;-81
2023/03/03 07:58:21;;;;;;;39.67;19.57;;;;;;;;;;5084217;28;20259;-81
2023/03/03 08:01:11;;;;;;;37.80;18.37;;;;;;;;;;5087972;28;20295;-82
2023/03/03 08:03:38;;;;;;;37.90;19.57;;;;;;;;;;5100227;27;20207;-82
2023/03/03 08:06:10;;;;;;;43.13;21.63;;;;;;;;;;5098003;27;20235;-82
2023/03/03 08:08:37;;;;;;;39.17;18.70;;;;;;;;;;5091653;28;20205;-81
2023/03/03 08:11:08;;;;;;;35.17;18.60;;;;;;;;;;5091067;28;20250;-82
2023/03/03 08:13:37;;;;;;;37.10;18.73;;;;;;;;;;5083317;28;20217;-82
2023/03/03 08:16:18;;;;;;;37.80;18.80;;;;;;;;;;5104708;28;20212;-82
2023/03/03 08:18:46;;;;;;;40.27;20.60;;;;;;;;;;5091027;28;20243;-82
2023/03/03 08:21:14;;;;;;;36.07;19.33;;;;;;;;;;5087653;28;20208;-81
2023/03/03 08:23:41;;;;;;;37.23;18.27;;;;;;;;;;5082631;28;20291;-81
2023/03/03 08:26:09;;;;;;;42.47;20.43;;;;;;;;;;5082425;28;20212;-82
2023/03/03 08:28:36;;;;;;;41.73;19.93;;;;;;;;;;5092542;28;20212;-82
2023/03/03 08:31:02;;;;;;;38.03;20.20;;;;;;;;;;5086110;28;20197;-82
2023/03/03 08:33:29;;;;;;;36.97;19.07;;;;;;;;;;5086952;28;20201;-82
2023/03/03 08:35:56;;;;;;;38.67;21.57;;;;;;;;;;5083871;28;20201;-82
2023/03/03 08:38:23;;;;;;;38.13;19.87;;;;;;;;;;5086077;28;20262;-82
2023/03/03 08:40:50;;;;;;;35.03;17.73;;;;;;;;;;5081087;28;20201;-82
2023/03/03 08:43:20;;;;;;;35.57;17.63;;;;;;;;;;5085650;28;20223;-82
2023/03/03 08:45:47;;;;;;;38.30;18.83;;;;;;;;;;5084951;28;20240;-82
2023/03/03 08:48:15;;;;;;;32.60;17.27;;;;;;;;;;5097664;28;20216;-82
2023/03/03 08:50:42;;;;;;;33.50;18.37;;;;;;;;;;5103406;28;20209;-82
2023/03/03 08:53:10;;;;;;;36.50;18.43;;;;;;;;;;5084531;28;20197;-82
2023/03/03 08:55:36;;;;;;;41.53;19.90;;;;;;;;;;5101200;27;20258;-82
2023/03/03 08:58:05;;;;;;;35.03;17.67;;;;;;;;;;5099787;28;20292;-82
2023/03/03 09:00:34;;;;;;;32.17;18.03;;;;;;;;;;5109927;27;20244;-82
2023/03/03 09:03:00;;;;;;;39.83;18.73;;;;;;;;;;5082784;28;20215;-83
2023/03/03 09:05:27;;;;;;;36.13;17.93;;;;;;;;;;5085957;28;20216;-82
2023/03/03 09:07:55;;;;;;;44.63;19.63;;;;;;;;;;5085446;28;20303;-82
2023/03/03 09:10:28;;;;;;;41.23;19.53;;;;;;;;;;5092321;28;20287;-82
2023/03/03 09:12:57;;;;;;;35.73;18.07;;;;;;;;;;5085908;28;20200;-82
2023/03/03 09:15:28;;;;;;;36.60;18.20;;;;;;;;;;5080030;28;20201;-82
2023/03/03 09:17:57;;;;;;;32.03;17.57;;;;;;;;;;5085069;28;20216;-82
2023/03/03 09:20:28;;;;;;;34.37;17.03;;;;;;;;;;5080424;28;20220;-83
2023/03/03 09:22:55;;;;;;;35.57;17.70;;;;;;;;;;5088872;28;20200;-82
2023/03/03 09:25:23;;;;;;;34.63;17.80;;;;;;;;;;5082492;28;20263;-83
2023/03/03 09:27:52;;;;;;;38.47;18.60;;;;;;;;;;5086027;28;20200;-82
2023/03/03 09:30:30;;;;;;;36.30;18.83;;;;;;;;;;5086184;28;20201;-83
2023/03/03 09:32:58;;;;;;;31.77;16.90;;;;;;;;;;5072459;28;20212;-82
2023/03/03 09:35:36;;;;;;;35.80;17.77;;;;;;;;;;5078653;28;20284;-82
2023/03/03 09:38:07;;;;;;;38.00;17.47;;;;;;;;;;5087551;28;20208;-83
2023/03/03 09:40:47;;;;;;;34.43;17.90;;;;;;;;;;5080704;28;20275;-82
2023/03/03 09:43:17;;;;;;;39.50;18.83;;;;;;;;;;5080870;28;20232;-82
2023/03/03 09:45:52;;;;;;;32.17;17.33;;;;;;;;;;5086747;28;20267;-82
2023/03/03 09:48:25;;;;;;;33.20;17.03;;;;;;;;;;5088077;28;20235;-82
2023/03/03 09:50:59;;;;;;;34.23;17.47;;;;;;;;;;5102671;28;20192;-82
2023/03/03 09:53:33;;;;;;;38.20;17.30;;;;;;;;;;5082448;28;20200;-82
2023/03/03 09:56:07;;;;;;;33.47;18.00;;;;;;;;;;5086337;28;20210;-83
2023/03/03 09:58:44;;;;;;;38.93;19.73;;;;;;;;;;5097846;28;20210;-82
2023/03/03 10:01:25;;;;;;;32.77;18.37;;;;;;;;;;5080656;28;20204;-83
2023/03/03 10:04:07;;;;;;;31.10;16.43;;;;;;;;;;5088988;28;20307;-83
2023/03/03 10:06:38;;;;;;;41.47;18.97;;;;;;;;;;5071288;28;20217;-83
2023/03/03 10:09:24;;;;;;;33.40;17.63;;;;;;;;;;5095655;28;20208;-83
2023/03/03 10:11:57;;;;;;;30.27;16.87;;;;;;;;;;5094783;28;20267;-83
2023/03/03 10:14:41;;;;;;;36.17;18.17;;;;;;;;;;5079946;28;20217;-83
2023/03/03 10:17:29;;;;;;;30.90;17.07;;;;;;;;;;5079063;28;20197;-83
2023/03/03 10:20:05;;;;;;;34.17;17.03;;;;;;;;;;5071497;28;20232;-83
2023/03/03 10:22:38;;;;;;;26.97;16.17;;;;;;;;;;5078791;28;20242;-83
2023/03/03 10:25:14;;;;;;;33.67;17.77;;;;;;;;;;5085609;28;20201;-83
2023/03/03 10:27:49;;;;;;;32.80;17.30;;;;;;;;;;5093415;28;20303;-83
2023/03/03 10:30:22;;;;;;;32.37;18.10;;;;;;;;;;5086802;28;20227;-83
2023/03/03 10:32:54;;;;;;;36.17;17.47;;;;;;;;;;5076205;28;20189;-83
2023/03/03 10:35:28;;;;;;;34.70;19.03;;;;;;;;;;5083558;28;20258;-83
2023/03/03 10:38:13;;;;;;;33.43;17.80;;;;;;;;;;5085302;28;20232;-83
2023/03/03 10:40:43;;;;;;;35.90;18.00;;;;;;;;;;5086259;28;20546;-83
2023/03/03 10:43:21;;;;;;;34.43;17.03;;;;;;;;;;5081902;28;20231;-83
2023/03/03 10:46:12;;;;;;;35.17;17.70;;;;;;;;;;5082139;28;20232;-83
2023/03/03 10:48:47;;;;;;;29.83;17.37;;;;;;;;;;5070396;28;20215;-83
2023/03/03 10:51:21;;;;;;;39.33;17.60;;;;;;;;;;5102592;28;20208;-82
2023/03/03 10:53:54;;;;;;;34.20;18.27;;;;;;;;;;5082913;28;20300;-83
2023/03/03 10:56:26;;;;;;;33.37;17.67;;;;;;;;;;5083535;28;20206;-83
2023/03/03 10:59:00;;;;;;;33.50;17.50;;;;;;;;;;5082852;28;20209;-83
2023/03/03 11:01:30;;;;;;;35.00;18.23;;;;;;;;;;5083325;28;20196;-83
2023/03/03 11:04:03;;;;;;;30.40;16.63;;;;;;;;;;5092453;28;20212;-83
2023/03/03 11:06:37;;;;;;;31.80;18.43;;;;;;;;;;5099794;27;20219;-83
2023/03/03 11:09:11;;;;;;;33.27;17.70;;;;;;;;;;5081861;28;20231;-83
2023/03/03 11:11:40;;;;;;;33.20;17.87;;;;;;;;;;5079106;28;20225;-83
2023/03/03 11:14:11;;;;;;;38.83;20.33;;;;;;;;;;5081751;28;20221;-83
2023/03/03 11:16:43;;;;;;;30.50;17.00;;;;;;;;;;5081591;28;20205;-83
2023/03/03 11:19:16;;;;;;;31.50;17.40;;;;;;;;;;5073656;28;20217;-84
2023/03/03 11:21:47;;;;;;;29.67;16.63;;;;;;;;;;5072886;28;20336;-83
2023/03/03 11:24:28;;;;;;;32.23;17.80;;;;;;;;;;5089616;28;20225;-83
2023/03/03 11:27:06;;;;;;;29.27;16.63;;;;;;;;;;5089259;28;20216;-84
2023/03/03 11:29:42;;;;;;;32.60;17.90;;;;;;;;;;5075181;28;20287;-84
2023/03/03 11:32:18;;;;;;;33.47;17.63;;;;;;;;;;5080367;28;20223;-84
2023/03/03 11:34:51;;;;;;;29.40;16.73;;;;;;;;;;5083516;28;20204;-83
2023/03/03 11:37:22;;;;;;;33.83;18.20;;;;;;;;;;5084419;28;20240;-83
2023/03/03 11:39:51;;;;;;;31.63;17.70;;;;;;;;;;5099261;28;20227;-84
2023/03/03 11:42:23;;;;;;;32.67;17.47;;;;;;;;;;5085483;28;20215;-84
2023/03/03 11:44:50;;;;;;;31.90;17.90;;;;;;;;;;5082846;28;20229;-84
2023/03/03 11:47:19;;;;;;;30.07;17.47;;;;;;;;;;5081421;28;20301;-84
2023/03/03 11:49:48;;;;;;;34.80;17.93;;;;;;;;;;5082734;28;20209;-83
2023/03/03 11:52:22;;;;;;;32.77;19.27;;;;;;;;;;5079038;28;20212;-84
2023/03/03 11:54:54;;;;;;;31.90;18.23;;;;;;;;;;5076654;28;20231;-83
2023/03/03 11:57:23;;;;;;;33.53;18.17;;;;;;;;;;5085790;28;20254;-83
2023/03/03 11:59:56;;;;;;;33.80;18.27;;;;;;;;;;5086590;28;20228;-84
2023/03/03 12:02:42;;;;;;;38.07;19.33;;;;;;;;;;5089671;28;20200;-83
2023/03/03 12:05:12;;;;;;;34.13;19.60;;;;;;;;;;5086264;28;20205;-83
2023/03/03 12:07:45;;;;;;;33.33;19.27;;;;;;;;;;5079864;28;20205;-83
2023/03/03 12:10:20;;;;;;;34.47;19.07;;;;;;;;;;5087515;28;20200;-83
2023/03/03 12:12:52;;;;;;;32.67;19.13;;;;;;;;;;5091574;28;20269;-84
2023/03/03 12:15:23;;;;;;;34.27;18.97;;;;;;;;;;5079011;28;20239;-84
2023/03/03 12:17:58;;;;;;;31.53;19.43;;;;;;;;;;5078261;28;20319;-83
2023/03/03 12:20:31;;;;;;;32.73;19.13;;;;;;;;;;5077391;28;20213;-84
2023/03/03 12:23:05;;;;;;;37.23;19.83;;;;;;;;;;5078145;28;20192;-84
2023/03/03 12:25:37;;;;;;;32.53;19.07;;;;;;;;;;5088428;28;20300;-84
2023/03/03 12:28:06;;;;;;;32.80;18.37;;;;;;;;;;5088092;28;20209;-83
2023/03/03 12:30:49;;;;;;;35.20;18.80;;;;;;;;;;5088356;28;20196;-84
2023/03/03 12:33:22;;;;;;;33.60;18.77;;;;;;;;;;5086829;28;20200;-84
2023/03/03 12:35:53;;;;;;;33.83;19.63;;;;;;;;;;5085175;28;20201;-83
2023/03/03 12:38:26;;;;;;;34.30;19.20;;;;;;;;;;5090466;28;20247;-84
2023/03/03 12:41:00;;;;;;;32.77;19.47;;;;;;;;;;5089138;28;20221;-83
2023/03/03 12:43:35;;;;;;;36.37;19.20;;;;;;;;;;5087357;28;20209;-84
2023/03/03 12:46:06;;;;;;;32.07;19.33;;;;;;;;;;5086782;28;20248;-84
2023/03/03 12:48:37;;;;;;;38.63;20.57;;;;;;;;;;5088008;28;20210;-84
2023/03/03 12:51:06;;;;;;;36.97;20.70;;;;;;;;;;5079208;28;20234;-84
2023/03/03 12:53:37;;;;;;;33.40;19.07;;;;;;;;;;5085918;28;20207;-84
2023/03/03 12:56:07;;;;;;;33.50;20.27;;;;;;;;;;5083088;28;20291;-84
2023/03/03 12:58:40;;;;;;;34.87;20.77;;;;;;;;;;5084255;28;20200;-83
2023/03/03 13:01:11;;;;;;;34.60;20.27;;;;;;;;;;5080424;28;20231;-84
2023/03/03 13:03:40;;;;;;;39.30;19.60;;;;;;;;;;5101066;28;20216;-84
2023/03/03 13:06:11;;;;;;;32.93;19.50;;;;;;;;;;5084086;28;20212;-84
2023/03/03 13:08:46;;;;;;;36.10;20.47;;;;;;;;;;5083469;28;20300;-84
2023/03/03 13:11:21;;;;;;;38.93;20.00;;;;;;;;;;5078677;28;20216;-84
2023/03/03 13:13:51;;;;;;;34.83;19.53;;;;;;;;;;5094419;28;20316;-83
2023/03/03 13:16:22;;;;;;;36.53;20.00;;;;;;;;;;5074943;28;20216;-83
2023/03/03 13:18:53;;;;;;;36.77;20.63;;;;;;;;;;5082657;28;20209;-84
2023/03/03 13:21:24;;;;;;;37.20;21.43;;;;;;;;;;5082692;28;20339;-84
2023/03/03 13:23:55;;;;;;;37.03;19.93;;;;;;;;;;5099948;28;20200;-83
2023/03/03 13:26:26;;;;;;;35.60;20.40;;;;;;;;;;5079415;28;20224;-84
2023/03/03 13:29:02;;;;;;;36.67;19.67;;;;;;;;;;5076358;28;20283;-83
2023/03/03 13:31:31;;;;;;;35.80;19.67;;;;;;;;;;5089165;28;20220;-84
2023/03/03 13:33:59;;;;;;;34.70;20.10;;;;;;;;;;5094428;28;20209;-84
2023/03/03 13:36:30;;;;;;;41.77;21.07;;;;;;;;;;5076686;28;20196;-84
2023/03/03 13:39:01;;;;;;;36.70;20.47;;;;;;;;;;5083942;28;20204;-83
2023/03/03 13:41:31;;;;;;;35.50;19.23;;;;;;;;;;5087642;28;20270;-84
2023/03/03 13:43:59;;;;;;;39.00;20.63;;;;;;;;;;5081652;28;20247;-84
2023/03/03 13:46:33;;;;;;;33.83;19.40;;;;;;;;;;5080527;28;20302;-84
2023/03/03 13:49:06;;;;;;;35.80;19.87;;;;;;;;;;5074009;28;20292;-83
2023/03/03 13:51:40;;;;;;;37.60;20.83;;;;;;;;;;5081124;28;20293;-84
2023/03/03 13:54:11;;;;;;;40.10;19.83;;;;;;;;;;5101328;28;20212;-84
2023/03/03 13:56:52;;;;;;;31.67;19.07;;;;;;;;;;5074623;28;20258;-83
2023/03/03 13:59:27;;;;;;;38.13;20.23;;;;;;;;;;5100529;28;20300;-84
2023/03/03 14:01:57;;;;;;;39.37;21.47;;;;;;;;;;5087769;28;20222;-84
2023/03/03 14:04:40;;;;;;;34.83;19.93;;;;;;;;;;5082573;28;20206;-84
2023/03/03 14:07:13;;;;;;;33.53;20.13;;;;;;;;;;5075416;28;20236;-84
2023/03/03 14:09:47;;;;;;;34.27;19.77;;;;;;;;;;5103991;28;20304;-84
2023/03/03 14:12:21;;;;;;;38.27;20.63;;;;;;;;;;5090133;28;20298;-83
2023/03/03 14:14:53;;;;;;;34.00;20.30;;;;;;;;;;5092976;28;20229;-84
2023/03/03 14:17:26;;;;;;;39.10;21.33;;;;;;;;;;5083134;28;20209;-83
2023/03/03 14:19:58;;;;;;;33.43;18.83;;;;;;;;;;5087815;28;20278;-84
2023/03/03 14:22:30;;;;;;;35.40;18.73;;;;;;;;;;5086118;28;20205;-84
2023/03/03 14:25:00;;;;;;;33.63;18.83;;;;;;;;;;5103936;28;20301;-84
2023/03/03 14:27:33;;;;;;;36.30;20.10;;;;;;;;;;5082857;28;20213;-84
2023/03/03 14:30:00;;;;;;;35.87;19.53;;;;;;;;;;5083272;28;20209;-84
2023/03/03 14:32:27;;;;;;;41.40;20.60;;;;;;;;;;5087044;28;20201;-84